All
San Ysidro Ranch Airport (Catarina, TX) TS40 Weather
There is no TAF data available at TS40 or any nearby airports.
There is no METAR data available at TS40. Showing METAR data for KCZT (16 mi NW).
Recent CZT METAR history (no data for TS40)
| Date | Time (CDT) | Flight Rules | Wind Dir. | Speed | Type | Height AGL (ft) | Visibility | Temp (°C) | Temp (°F) | Dew Point (°C) | Dew Point (°F) | Rel. Humid. | Pressure | Density Altitude | Remarks |
|---|---|---|---|---|---|---|---|---|---|---|---|---|---|---|---|
| 02-Sep | 09:35 | VFR | 170° | 7 kt | 10 miles | 30° | 86° | 23° | 73° | 66% | 29.99 in Hg | 2,328 ft | |||
| 02-Sep | 09:15 | VFR | 140° | 5 kt | 10 miles | 28° | 82° | 23° | 73° | 74% | 29.99 in Hg | 2,088 ft | |||
| 02-Sep | 08:55 | VFR | 130° | 7 kt | 10 miles | 27° | 80° | 22° | 71° | 74% | 29.99 in Hg | 1,968 ft | |||
| 02-Sep | 08:35 | VFR | 120° | 4 kt | 10 miles | 26° | 78° | 22° | 71° | 79% | 29.99 in Hg | 1,848 ft | |||
| 02-Sep | 08:15 | VFR | 120° | 4 kt | 10 miles | 25° | 77° | 22° | 71° | 83% | 29.98 in Hg | 1,738 ft | |||
| 02-Sep | 07:55 | VFR | Calm | 10 miles | 25° | 77° | 23° | 73° | 89% | 29.98 in Hg | 1,738 ft | ||||
| 02-Sep | 07:15 | VFR | 110° | 3 kt | 10 miles | 23° | 73° | 22° | 71° | 94% | 29.97 in Hg | 1,508 ft | |||
| 02-Sep | 06:55 | VFR | Calm | 10 miles | 23° | 73° | 21° | 69° | 89% | 29.97 in Hg | 1,508 ft | ||||
| 02-Sep | 06:35 | VFR | 110° | 3 kt | 10 miles | 23° | 73° | 21° | 69° | 89% | 29.96 in Hg | 1,518 ft | |||
| 02-Sep | 06:15 | VFR | Calm | 10 miles | 24° | 75° | 21° | 69° | 83% | 29.96 in Hg | 1,638 ft | ||||
| 02-Sep | 05:55 | VFR | Calm | 10 miles | 25° | 77° | 21° | 69° | 79% | 29.96 in Hg | 1,758 ft | ||||
| 02-Sep | 05:35 | VFR | Calm | 10 miles | 25° | 77° | 21° | 69° | 79% | 29.96 in Hg | 1,758 ft | ||||
| 02-Sep | 05:15 | VFR | 110° | 4 kt | 10 miles | 26° | 78° | 21° | 69° | 74% | 29.95 in Hg | 1,888 ft | |||
| 02-Sep | 04:55 | VFR | 120° | 4 kt | 10 miles | 26° | 78° | 21° | 69° | 74% | 29.95 in Hg | 1,888 ft | |||
| 02-Sep | 04:35 | VFR | 130° | 3 kt | 10 miles | 26° | 78° | 21° | 69° | 74% | 29.96 in Hg | 1,878 ft | |||
| 02-Sep | 04:15 | VFR | 140° | 3 kt | 10 miles | 26° | 78° | 21° | 69° | 74% | 29.95 in Hg | 1,888 ft | |||
| 02-Sep | 03:55 | VFR | 160° | 4 kt | 10 miles | 26° | 78° | 21° | 69° | 74% | 29.96 in Hg | 1,878 ft | |||
| 02-Sep | 03:35 | VFR | 120° | 3 kt | 10 miles | 27° | 80° | 21° | 69° | 70% | 29.96 in Hg | 1,998 ft | |||
| gap in available data | |||||||||||||||
| 02-Sep | 01:55 | VFR | 150° | 6 kt | 10 miles | 29° | 84° | 21° | 69° | 62% | 29.96 in Hg | 2,238 ft | |||
| 02-Sep | 01:15 | VFR | 150° | 7 kt | 10 miles | 30° | 86° | 21° | 69° | 59% | 29.95 in Hg | 2,368 ft | |||
| 02-Sep | 00:55 | VFR | 160° | 8 kt | 10 miles | 30° | 86° | 21° | 69° | 59% | 29.95 in Hg | 2,368 ft | |||
| 02-Sep | 00:35 | VFR | 160° | 8 kt | 10 miles | 30° | 86° | 21° | 69° | 59% | 29.94 in Hg | 2,378 ft | |||
| 02-Sep | 00:15 | VFR | 150° | 9 kt | 10 miles | 31° | 87° | 21° | 69° | 55% | 29.94 in Hg | 2,498 ft | Wind gusting to 14 KT | ||
| 01-Sep | 23:55 | VFR | 150° | 8 kt | 10 miles | 31° | 87° | 21° | 69° | 55% | 29.94 in Hg | 2,498 ft | |||
Login
| Your browser is unsupported. upgrade your browser |
